Time;durP1;ratioP1;P1;durP2;ratioP2;P2;SDS_P1;SDS_P2;PMS_P1;PMS_P2;Temp;Humidity;BMP_temperature;BMP_pressure;BME280_temperature;BME280_humidity;BME280_pressure;Samples;Min_cycle;Max_cycle;Signal;HPM_P1;HPM_P2
2021/12/08 00:02:42;;;;;;;5.78;1.35;;;;;;;;;;7488767;39;20262;-78
2021/12/08 00:07:47;;;;;;;5.90;1.77;;;;;;;;;;7488272;39;21449;-78
2021/12/08 00:18:18;;;;;;;4.55;1.30;;;;;;;;;;7487326;39;21501;-71
2021/12/08 00:23:24;;;;;;;12.98;1.72;;;;;;;;;;7488197;39;20233;-71
2021/12/08 00:28:29;;;;;;;6.42;1.50;;;;;;;;;;7487294;39;21483;-71
2021/12/08 00:33:34;;;;;;;7.17;1.85;;;;;;;;;;7487233;39;20227;-71
2021/12/08 00:38:39;;;;;;;11.53;1.97;;;;;;;;;;7488770;39;21391;-77
2021/12/08 00:43:44;;;;;;;7.58;1.98;;;;;;;;;;7487468;39;20244;-77
2021/12/08 00:48:50;;;;;;;10.08;1.72;;;;;;;;;;7487758;39;21487;-71
2021/12/08 00:53:55;;;;;;;4.92;1.57;;;;;;;;;;7487644;39;20214;-78
2021/12/08 00:59:00;;;;;;;4.85;1.57;;;;;;;;;;7487930;39;21501;-74
2021/12/08 01:04:05;;;;;;;7.93;1.77;;;;;;;;;;7487375;39;20184;-71
2021/12/08 01:09:10;;;;;;;8.23;1.70;;;;;;;;;;7487777;39;22508;-77
2021/12/08 01:14:15;;;;;;;6.53;2.00;;;;;;;;;;7487401;39;20203;-74
2021/12/08 01:19:20;;;;;;;8.03;1.80;;;;;;;;;;7487153;39;21621;-71
2021/12/08 01:24:25;;;;;;;9.75;1.77;;;;;;;;;;7487884;39;20224;-71
2021/12/08 01:29:30;;;;;;;5.90;1.80;;;;;;;;;;7487231;39;21484;-71
2021/12/08 01:34:35;;;;;;;11.05;2.27;;;;;;;;;;7488340;39;20201;-73
2021/12/08 01:39:39;;;;;;;4.17;1.55;;;;;;;;;;7487880;39;21513;-71
2021/12/08 01:50:11;;;;;;;7.08;2.33;;;;;;;;;;7488193;39;21458;-78
2021/12/08 01:55:16;;;;;;;6.73;2.13;;;;;;;;;;7487302;39;20292;-77
2021/12/08 02:00:23;;;;;;;14.68;1.50;;;;;;;;;;7488556;39;21436;-71
2021/12/08 02:05:29;;;;;;;5.83;2.10;;;;;;;;;;7487999;39;20223;-72
2021/12/08 02:10:34;;;;;;;5.97;2.15;;;;;;;;;;7488324;39;21526;-71
2021/12/08 02:15:39;;;;;;;8.50;2.30;;;;;;;;;;7488134;39;20219;-78
2021/12/08 02:20:45;;;;;;;5.63;1.70;;;;;;;;;;7488778;39;21634;-71
2021/12/08 02:25:50;;;;;;;6.10;2.20;;;;;;;;;;7487423;39;21896;-77
2021/12/08 02:31:02;;;;;;;5.22;1.70;;;;;;;;;;7488159;39;21482;-78
2021/12/08 02:47:07;;;;;;;7.73;2.37;;;;;;;;;;7488089;39;20176;-77
2021/12/08 02:52:00;;;;;;;7.20;2.05;;;;;;;;;;7487660;39;21447;-77
2021/12/08 02:57:05;;;;;;;10.28;1.62;;;;;;;;;;7488427;39;21482;-71
2021/12/08 03:02:10;;;;;;;7.65;2.37;;;;;;;;;;7488015;39;20383;-78
2021/12/08 03:07:15;;;;;;;9.75;2.95;;;;;;;;;;7486255;39;21516;-71
2021/12/08 03:12:21;;;;;;;7.13;2.50;;;;;;;;;;7487977;39;21556;-70
2021/12/08 03:17:26;;;;;;;10.35;3.25;;;;;;;;;;7487852;39;21466;-75
2021/12/08 03:22:32;;;;;;;12.00;3.15;;;;;;;;;;7487571;39;20224;-76
2021/12/08 03:27:44;;;;;;;7.28;2.80;;;;;;;;;;7487673;39;21431;-77
2021/12/08 03:32:44;;;;;;;11.55;2.33;;;;;;;;;;7488084;39;20227;-71
2021/12/08 03:37:49;;;;;;;8.07;3.23;;;;;;;;;;7487667;39;21531;-77
2021/12/08 03:42:55;;;;;;;8.18;3.02;;;;;;;;;;7487967;39;20253;-77
2021/12/08 03:48:03;;;;;;;11.30;2.50;;;;;;;;;;7487451;39;21638;-71
2021/12/08 03:53:08;;;;;;;12.20;3.75;;;;;;;;;;7487547;39;20195;-77
2021/12/08 03:58:14;;;;;;;8.55;3.27;;;;;;;;;;7488075;39;21455;-71
2021/12/08 04:03:19;;;;;;;11.47;3.27;;;;;;;;;;7487604;39;20158;-77
2021/12/08 04:14:09;;;;;;;10.72;3.45;;;;;;;;;;7487846;39;21445;-71
2021/12/08 04:19:14;;;;;;;9.40;4.12;;;;;;;;;;7487718;39;21426;-75
2021/12/08 04:24:19;;;;;;;8.75;3.17;;;;;;;;;;7488321;39;20403;-77
2021/12/08 04:29:25;;;;;;;18.27;5.50;;;;;;;;;;7488118;39;21819;-77
2021/12/08 04:34:33;;;;;;;17.98;5.53;;;;;;;;;;7487963;39;21431;-77
2021/12/08 04:39:49;;;;;;;21.10;6.20;;;;;;;;;;7487362;39;21505;-77
2021/12/08 04:45:27;;;;;;;16.95;5.15;;;;;;;;;;7487360;39;20282;-76
2021/12/08 05:11:37;;;;;;;15.65;5.35;;;;;;;;;;7487069;39;21712;-70
2021/12/08 05:16:43;;;;;;;14.35;4.08;;;;;;;;;;7486723;39;20246;-78
2021/12/08 05:22:08;;;;;;;15.27;4.60;;;;;;;;;;7487001;39;21427;-74
2021/12/08 05:27:33;;;;;;;15.78;4.47;;;;;;;;;;7487346;39;20216;-74
2021/12/08 05:32:38;;;;;;;17.17;5.60;;;;;;;;;;7487176;39;21465;-78
2021/12/08 05:37:43;;;;;;;22.22;6.05;;;;;;;;;;7488005;39;21448;-77
2021/12/08 05:42:48;;;;;;;20.95;5.67;;;;;;;;;;7485802;39;20227;-77
2021/12/08 05:47:54;;;;;;;19.30;5.43;;;;;;;;;;7484088;39;21841;-77
2021/12/08 05:52:59;;;;;;;17.37;5.60;;;;;;;;;;7478085;39;21048;-77
2021/12/08 05:58:05;;;;;;;18.50;5.90;;;;;;;;;;7484997;39;21526;-72
2021/12/08 06:03:11;;;;;;;19.52;6.22;;;;;;;;;;7483190;39;21213;-76
2021/12/08 06:08:16;;;;;;;23.60;7.08;;;;;;;;;;7481085;39;21891;-78
2021/12/08 06:13:20;;;;;;;22.20;6.60;;;;;;;;;;7483969;39;20891;-76
2021/12/08 06:18:27;;;;;;;21.77;6.37;;;;;;;;;;7486525;39;21538;-70
2021/12/08 06:23:32;;;;;;;23.73;5.70;;;;;;;;;;7487344;39;20194;-74
2021/12/08 06:28:37;;;;;;;17.10;5.47;;;;;;;;;;7488659;39;21470;-75
2021/12/08 06:33:42;;;;;;;23.57;6.33;;;;;;;;;;7488133;39;21456;-74
2021/12/08 06:38:47;;;;;;;22.80;6.80;;;;;;;;;;7487834;39;21522;-70
2021/12/08 06:43:53;;;;;;;22.20;6.15;;;;;;;;;;7489071;39;20238;-70
2021/12/08 06:48:59;;;;;;;19.30;6.75;;;;;;;;;;7488046;39;21521;-69
2021/12/08 06:54:24;;;;;;;22.25;6.22;;;;;;;;;;7488295;39;21659;-71
2021/12/08 06:59:33;;;;;;;26.30;7.90;;;;;;;;;;7486946;39;21204;-76
2021/12/08 07:04:54;;;;;;;28.97;8.00;;;;;;;;;;7488389;39;20272;-73
2021/12/08 07:10:05;;;;;;;30.20;7.37;;;;;;;;;;7487307;39;21877;-73
2021/12/08 07:15:30;;;;;;;21.17;7.15;;;;;;;;;;7487719;39;20821;-73
2021/12/08 07:20:54;;;;;;;26.10;7.20;;;;;;;;;;7488530;39;21471;-75
2021/12/08 07:26:00;;;;;;;22.00;6.78;;;;;;;;;;7487923;39;20234;-72
2021/12/08 07:31:25;;;;;;;25.30;7.47;;;;;;;;;;7488603;39;21451;-73
2021/12/08 07:36:29;;;;;;;27.82;7.37;;;;;;;;;;7487323;39;20503;-75
2021/12/08 07:41:36;;;;;;;25.70;7.03;;;;;;;;;;7487884;39;21421;-74
2021/12/08 07:46:42;;;;;;;23.98;6.53;;;;;;;;;;7488652;39;20230;-73
2021/12/08 07:52:07;;;;;;;21.17;6.22;;;;;;;;;;7487635;39;21591;-74
2021/12/08 07:57:13;;;;;;;24.53;6.53;;;;;;;;;;7488821;39;20169;-73
2021/12/08 08:02:18;;;;;;;22.05;6.65;;;;;;;;;;7488079;39;21512;-73
2021/12/08 08:07:24;;;;;;;19.85;6.65;;;;;;;;;;7488533;39;21481;-74
2021/12/08 08:12:30;;;;;;;17.62;5.62;;;;;;;;;;7488280;39;20229;-74
2021/12/08 08:17:40;;;;;;;19.32;6.75;;;;;;;;;;7488063;39;21677;-75
2021/12/08 08:22:43;;;;;;;21.00;6.87;;;;;;;;;;7488499;39;20216;-72
2021/12/08 08:27:48;;;;;;;20.25;6.35;;;;;;;;;;7487432;39;21460;-74
2021/12/08 08:32:54;;;;;;;20.60;6.62;;;;;;;;;;7488219;39;20212;-74
2021/12/08 08:38:00;;;;;;;17.25;4.95;;;;;;;;;;7487470;39;21512;-72
2021/12/08 08:43:06;;;;;;;15.83;5.45;;;;;;;;;;7488018;39;20347;-76
2021/12/08 08:48:13;;;;;;;15.67;5.37;;;;;;;;;;7485579;39;21534;-74
2021/12/08 08:53:19;;;;;;;18.32;6.15;;;;;;;;;;7485622;39;21944;-78
2021/12/08 08:58:25;;;;;;;17.80;6.42;;;;;;;;;;7486311;39;21104;-77
2021/12/08 09:03:34;;;;;;;19.52;6.72;;;;;;;;;;7486926;39;20293;-76
2021/12/08 09:08:39;;;;;;;19.12;6.40;;;;;;;;;;7486735;39;21493;-78
2021/12/08 09:13:46;;;;;;;19.07;6.37;;;;;;;;;;7486743;39;21523;-77
2021/12/08 09:19:01;;;;;;;26.20;7.42;;;;;;;;;;7487755;39;21564;-75
2021/12/08 09:24:20;;;;;;;21.20;7.10;;;;;;;;;;7486740;39;21207;-78
2021/12/08 09:29:26;;;;;;;26.20;8.28;;;;;;;;;;7487091;39;21074;-78
2021/12/08 09:34:33;;;;;;;25.00;7.78;;;;;;;;;;7487145;39;20440;-76
2021/12/08 09:39:39;;;;;;;26.13;7.87;;;;;;;;;;7487668;39;21513;-76
2021/12/08 09:44:46;;;;;;;25.43;8.78;;;;;;;;;;7487693;39;20394;-77
2021/12/08 09:49:51;;;;;;;26.60;7.47;;;;;;;;;;7486769;39;21601;-77
2021/12/08 09:54:57;;;;;;;25.85;7.97;;;;;;;;;;7488193;39;20178;-77
2021/12/08 10:00:02;;;;;;;33.05;9.63;;;;;;;;;;7487827;39;21465;-78
2021/12/08 10:05:26;;;;;;;24.57;8.30;;;;;;;;;;7487833;39;20233;-78
2021/12/08 10:10:32;;;;;;;20.62;6.30;;;;;;;;;;7488039;39;21477;-77
2021/12/08 10:15:37;;;;;;;27.75;7.85;;;;;;;;;;7487653;39;20162;-77
2021/12/08 10:20:43;;;;;;;24.45;7.20;;;;;;;;;;7488305;39;21762;-74
2021/12/08 10:25:50;;;;;;;26.70;9.10;;;;;;;;;;7487387;39;21464;-77
2021/12/08 10:30:56;;;;;;;30.53;9.30;;;;;;;;;;7488110;39;21521;-76
2021/12/08 10:36:05;;;;;;;29.48;9.55;;;;;;;;;;7487665;39;20230;-76
2021/12/08 10:41:09;;;;;;;26.15;8.93;;;;;;;;;;7488188;39;21922;-77
2021/12/08 10:46:13;;;;;;;34.67;11.08;;;;;;;;;;7488262;39;20900;-77
2021/12/08 10:57:04;;;;;;;34.80;11.23;;;;;;;;;;7487227;39;21878;-74
2021/12/08 11:02:10;;;;;;;30.05;10.43;;;;;;;;;;7487646;39;21656;-74
2021/12/08 11:07:15;;;;;;;32.93;9.88;;;;;;;;;;7487499;39;21461;-74
2021/12/08 11:12:21;;;;;;;32.40;10.50;;;;;;;;;;7488178;39;20897;-74
2021/12/08 11:17:46;;;;;;;30.00;10.05;;;;;;;;;;7488017;39;21461;-74
2021/12/08 11:23:13;;;;;;;27.33;9.37;;;;;;;;;;7487216;39;20448;-73
2021/12/08 11:28:37;;;;;;;33.48;10.95;;;;;;;;;;7487227;39;21497;-75
2021/12/08 11:33:47;;;;;;;31.60;11.55;;;;;;;;;;7486105;39;20473;-77
2021/12/08 11:38:51;;;;;;;30.20;10.05;;;;;;;;;;7486569;39;21515;-73
2021/12/08 11:44:15;;;;;;;26.85;9.10;;;;;;;;;;7486940;39;20251;-74
2021/12/08 11:49:21;;;;;;;28.60;9.60;;;;;;;;;;7487014;39;22132;-73
2021/12/08 11:54:28;;;;;;;33.05;9.85;;;;;;;;;;7486867;39;21318;-72
2021/12/08 11:59:33;;;;;;;34.25;11.18;;;;;;;;;;7486861;39;21533;-75
2021/12/08 12:04:38;;;;;;;30.15;10.35;;;;;;;;;;7487272;39;20800;-74
2021/12/08 12:09:43;;;;;;;30.30;10.05;;;;;;;;;;7487388;39;21553;-75
2021/12/08 12:14:49;;;;;;;35.73;11.30;;;;;;;;;;7488184;39;21544;-73
2021/12/08 12:19:55;;;;;;;34.73;11.57;;;;;;;;;;7487675;39;21485;-74
2021/12/08 12:25:20;;;;;;;41.88;12.07;;;;;;;;;;7487471;39;21523;-72
2021/12/08 12:30:45;;;;;;;41.73;11.75;;;;;;;;;;7487627;39;21519;-74
2021/12/08 12:36:09;;;;;;;37.33;10.58;;;;;;;;;;7487299;39;20394;-73
2021/12/08 12:41:16;;;;;;;21.93;7.43;;;;;;;;;;7488356;39;21874;-73
2021/12/08 12:46:23;;;;;;;39.33;10.88;;;;;;;;;;7485808;39;20961;-73
2021/12/08 12:51:27;;;;;;;37.67;10.98;;;;;;;;;;7488082;39;21473;-74
2021/12/08 12:56:34;;;;;;;34.23;10.68;;;;;;;;;;7486533;39;20229;-73
2021/12/08 13:01:44;;;;;;;35.63;11.05;;;;;;;;;;7487407;39;21556;-72
2021/12/08 13:06:47;;;;;;;38.43;10.87;;;;;;;;;;7486822;39;20234;-73
2021/12/08 13:17:36;;;;;;;44.15;11.90;;;;;;;;;;7485760;39;21493;-73
2021/12/08 13:23:02;;;;;;;33.50;9.88;;;;;;;;;;7485045;39;21448;-73
2021/12/08 13:28:30;;;;;;;35.55;10.35;;;;;;;;;;7483008;39;21519;-75
2021/12/08 13:33:53;;;;;;;33.90;11.33;;;;;;;;;;7487298;39;20227;-75
2021/12/08 13:39:18;;;;;;;38.88;11.40;;;;;;;;;;7487029;39;21752;-74
2021/12/08 13:44:24;;;;;;;36.45;10.72;;;;;;;;;;7486255;39;20179;-74
2021/12/08 13:49:34;;;;;;;38.83;11.90;;;;;;;;;;7486994;39;21731;-74
2021/12/08 13:54:57;;;;;;;42.38;12.47;;;;;;;;;;7486815;39;20281;-75
2021/12/08 14:00:22;;;;;;;39.57;12.30;;;;;;;;;;7486382;39;21492;-74
2021/12/08 14:05:28;;;;;;;58.33;15.15;;;;;;;;;;7485714;39;21510;-74
2021/12/08 14:10:53;;;;;;;45.25;12.13;;;;;;;;;;7486249;39;21916;-77
2021/12/08 14:15:59;;;;;;;48.52;13.83;;;;;;;;;;7486777;39;20908;-75
2021/12/08 14:21:24;;;;;;;51.83;13.20;;;;;;;;;;7484983;39;21514;-74
2021/12/08 14:27:03;;;;;;;52.17;13.87;;;;;;;;;;7486107;39;20217;-73
2021/12/08 14:31:39;;;;;;;43.35;12.40;;;;;;;;;;7484140;39;21862;-74
2021/12/08 14:37:04;;;;;;;50.30;13.40;;;;;;;;;;7486600;39;20782;-74
2021/12/08 14:42:10;;;;;;;44.75;12.30;;;;;;;;;;7488855;39;21459;-74
2021/12/08 14:47:19;;;;;;;40.15;11.33;;;;;;;;;;7488019;39;20225;-75
2021/12/08 14:52:24;;;;;;;42.93;11.13;;;;;;;;;;7487674;39;21657;-75
2021/12/08 14:57:51;;;;;;;42.15;11.50;;;;;;;;;;7486859;39;21127;-73
2021/12/08 15:03:16;;;;;;;41.45;10.88;;;;;;;;;;7485278;39;20471;-73
2021/12/08 15:08:24;;;;;;;44.45;11.90;;;;;;;;;;7486583;39;21142;-72
2021/12/08 15:13:49;;;;;;;38.20;10.78;;;;;;;;;;7487224;39;20230;-73
2021/12/08 15:18:55;;;;;;;38.10;10.87;;;;;;;;;;7487336;39;21569;-68
2021/12/08 15:24:02;;;;;;;38.28;10.88;;;;;;;;;;7487869;39;20462;-72
2021/12/08 15:29:08;;;;;;;40.12;10.72;;;;;;;;;;7487711;39;21478;-65
2021/12/08 15:34:15;;;;;;;37.95;9.70;;;;;;;;;;7486694;39;21495;-68
2021/12/08 15:39:21;;;;;;;33.33;10.98;;;;;;;;;;7487031;39;21531;-74
2021/12/08 15:44:26;;;;;;;37.30;11.13;;;;;;;;;;7488073;39;20160;-72
2021/12/08 15:49:34;;;;;;;37.88;10.63;;;;;;;;;;7488612;39;21519;-68
2021/12/08 15:54:39;;;;;;;44.48;11.38;;;;;;;;;;7487403;39;21468;-69
2021/12/08 15:59:46;;;;;;;44.63;12.63;;;;;;;;;;7488124;39;21516;-69
2021/12/08 16:04:52;;;;;;;45.55;11.97;;;;;;;;;;7487901;39;20750;-73
2021/12/08 16:09:57;;;;;;;54.33;13.47;;;;;;;;;;7487635;39;21506;-72
2021/12/08 16:15:03;;;;;;;58.15;15.20;;;;;;;;;;7488237;39;20174;-72
2021/12/08 16:20:28;;;;;;;50.75;13.70;;;;;;;;;;7487736;39;21511;-73
2021/12/08 16:25:33;;;;;;;48.87;11.85;;;;;;;;;;7488561;39;20231;-71
2021/12/08 16:30:38;;;;;;;48.10;12.47;;;;;;;;;;7488229;39;21507;-71
2021/12/08 16:35:44;;;;;;;47.70;12.27;;;;;;;;;;7488023;39;20226;-74
2021/12/08 16:46:13;;;;;;;46.33;11.05;;;;;;;;;;7488004;39;20238;-68
2021/12/08 16:51:18;;;;;;;50.65;12.53;;;;;;;;;;7488613;39;21490;-71
2021/12/08 16:56:23;;;;;;;48.68;12.68;;;;;;;;;;7487801;39;20182;-73
2021/12/08 17:01:28;;;;;;;59.23;14.03;;;;;;;;;;7488308;39;21651;-69
2021/12/08 17:06:33;;;;;;;54.05;14.15;;;;;;;;;;7487743;39;21049;-70
2021/12/08 17:11:39;;;;;;;52.73;13.93;;;;;;;;;;7487577;39;21491;-69
2021/12/08 17:16:44;;;;;;;53.95;14.23;;;;;;;;;;7488807;39;20225;-73
2021/12/08 17:21:49;;;;;;;50.78;14.33;;;;;;;;;;7487613;39;21456;-73
2021/12/08 17:26:54;;;;;;;55.30;15.13;;;;;;;;;;7488324;39;20281;-70
2021/12/08 17:31:59;;;;;;;53.55;14.38;;;;;;;;;;7487406;39;21511;-73
2021/12/08 17:37:05;;;;;;;70.90;15.90;;;;;;;;;;7488740;39;21776;-69
2021/12/08 17:42:10;;;;;;;69.05;15.50;;;;;;;;;;7487567;39;21512;-73
2021/12/08 17:47:15;;;;;;;70.67;14.93;;;;;;;;;;7487285;39;21487;-69
2021/12/08 17:52:19;;;;;;;63.70;13.83;;;;;;;;;;7488135;39;21598;-69
2021/12/08 17:57:24;;;;;;;65.60;17.27;;;;;;;;;;7487349;39;20499;-73
2021/12/08 18:02:29;;;;;;;55.35;14.53;;;;;;;;;;7487562;39;21207;-73
2021/12/08 18:07:34;;;;;;;67.10;17.92;;;;;;;;;;7487876;39;21660;-69
2021/12/08 18:12:39;;;;;;;66.92;15.03;;;;;;;;;;7487473;39;21465;-73
2021/12/08 18:17:44;;;;;;;71.90;16.10;;;;;;;;;;7488812;39;21484;-69
2021/12/08 18:22:49;;;;;;;64.55;15.68;;;;;;;;;;7487923;39;20174;-69
2021/12/08 18:27:54;;;;;;;58.23;15.18;;;;;;;;;;7488518;39;21496;-69
2021/12/08 18:32:59;;;;;;;48.48;13.72;;;;;;;;;;7487062;39;21504;-73
2021/12/08 18:38:06;;;;;;;54.33;15.65;;;;;;;;;;7488513;39;21425;-69
2021/12/08 18:43:11;;;;;;;52.70;14.10;;;;;;;;;;7488345;39;20170;-74
2021/12/08 18:48:16;;;;;;;50.73;14.20;;;;;;;;;;7486759;39;21523;-71
2021/12/08 18:53:20;;;;;;;54.75;15.10;;;;;;;;;;7488617;39;20218;-69
2021/12/08 18:58:27;;;;;;;56.92;15.20;;;;;;;;;;7487162;39;21492;-68
2021/12/08 19:03:31;;;;;;;66.87;15.23;;;;;;;;;;7487284;39;20381;-72
2021/12/08 19:08:37;;;;;;;53.50;15.03;;;;;;;;;;7488076;39;21491;-71
2021/12/08 19:13:42;;;;;;;51.60;15.23;;;;;;;;;;7486593;39;20210;-72
2021/12/08 19:18:46;;;;;;;58.08;15.18;;;;;;;;;;7487026;39;21446;-69
2021/12/08 19:23:51;;;;;;;48.45;13.78;;;;;;;;;;7487574;39;21597;-73
2021/12/08 19:28:56;;;;;;;48.15;13.85;;;;;;;;;;7488741;39;21536;-73
2021/12/08 19:34:02;;;;;;;45.53;13.90;;;;;;;;;;7487727;39;20233;-73
2021/12/08 19:39:08;;;;;;;46.92;13.28;;;;;;;;;;7486966;39;21617;-70
2021/12/08 19:44:13;;;;;;;41.33;13.60;;;;;;;;;;7487827;39;20192;-70
2021/12/08 19:49:18;;;;;;;33.75;11.18;;;;;;;;;;7487443;39;21515;-70
2021/12/08 19:54:23;;;;;;;36.90;12.10;;;;;;;;;;7487385;39;20402;-70
2021/12/08 19:59:28;;;;;;;40.10;12.47;;;;;;;;;;7483986;39;21454;-72
2021/12/08 20:04:33;;;;;;;35.78;12.40;;;;;;;;;;7484578;39;20224;-70
2021/12/08 20:09:37;;;;;;;35.33;12.25;;;;;;;;;;7487248;39;21524;-70
2021/12/08 20:14:43;;;;;;;33.02;10.80;;;;;;;;;;7485422;39;20212;-70
2021/12/08 20:19:48;;;;;;;40.58;12.43;;;;;;;;;;7485540;39;21514;-71
2021/12/08 20:24:52;;;;;;;41.53;13.90;;;;;;;;;;7487222;39;20182;-72
2021/12/08 20:29:58;;;;;;;45.20;14.40;;;;;;;;;;7485254;39;21509;-70
2021/12/08 20:35:03;;;;;;;57.83;16.17;;;;;;;;;;7487422;39;20351;-70
2021/12/08 20:40:09;;;;;;;53.13;15.83;;;;;;;;;;7487519;39;21602;-73
2021/12/08 20:45:13;;;;;;;61.45;17.07;;;;;;;;;;7486777;39;21525;-71
2021/12/08 20:50:19;;;;;;;65.53;17.77;;;;;;;;;;7486419;39;21698;-71
2021/12/08 20:55:24;;;;;;;66.75;18.17;;;;;;;;;;7486428;39;21498;-70
2021/12/08 21:00:40;;;;;;;79.12;20.40;;;;;;;;;;7485966;39;21480;-70
2021/12/08 21:05:37;;;;;;;85.30;21.10;;;;;;;;;;7483164;39;20505;-69
2021/12/08 21:10:42;;;;;;;102.55;23.12;;;;;;;;;;7487278;39;20885;-70
2021/12/08 21:15:47;;;;;;;87.67;20.93;;;;;;;;;;7487177;39;20308;-69
2021/12/08 21:20:52;;;;;;;92.12;21.48;;;;;;;;;;7487055;39;21562;-73
2021/12/08 21:25:57;;;;;;;83.85;22.52;;;;;;;;;;7487389;39;21509;-69
2021/12/08 21:31:02;;;;;;;84.62;21.55;;;;;;;;;;7486347;39;21866;-70
2021/12/08 21:36:07;;;;;;;78.22;19.55;;;;;;;;;;7487355;39;20409;-68
2021/12/08 21:41:13;;;;;;;80.60;20.37;;;;;;;;;;7486192;39;21501;-71
2021/12/08 21:46:19;;;;;;;75.15;21.23;;;;;;;;;;7486230;39;21497;-71
2021/12/08 21:51:24;;;;;;;73.37;19.87;;;;;;;;;;7487446;39;21732;-69
2021/12/08 21:56:29;;;;;;;77.08;20.40;;;;;;;;;;7487224;39;20175;-72
2021/12/08 22:01:34;;;;;;;69.75;20.02;;;;;;;;;;7487695;39;21521;-69
2021/12/08 22:06:40;;;;;;;59.93;18.63;;;;;;;;;;7487604;39;20218;-69
2021/12/08 22:11:45;;;;;;;67.03;18.60;;;;;;;;;;7487126;39;21631;-69
2021/12/08 22:16:50;;;;;;;68.22;18.92;;;;;;;;;;7488211;39;20169;-70
2021/12/08 22:21:55;;;;;;;63.02;17.15;;;;;;;;;;7488146;39;21529;-72
2021/12/08 22:27:00;;;;;;;59.42;17.77;;;;;;;;;;7488904;39;20233;-69
2021/12/08 22:32:05;;;;;;;59.87;16.87;;;;;;;;;;7488178;39;21443;-71
2021/12/08 22:37:12;;;;;;;59.65;17.60;;;;;;;;;;7488243;39;20174;-68
2021/12/08 22:42:17;;;;;;;54.88;16.62;;;;;;;;;;7488041;39;21515;-71
2021/12/08 22:47:22;;;;;;;58.02;16.52;;;;;;;;;;7488136;39;20198;-72
2021/12/08 22:52:27;;;;;;;59.73;18.35;;;;;;;;;;7488659;39;21425;-69
2021/12/08 22:57:32;;;;;;;65.40;18.17;;;;;;;;;;7488598;39;20221;-70
2021/12/08 23:02:37;;;;;;;78.50;19.48;;;;;;;;;;7488378;39;21473;-69
2021/12/08 23:13:08;;;;;;;76.97;20.05;;;;;;;;;;7488429;39;20388;-69
2021/12/08 23:18:13;;;;;;;73.12;19.25;;;;;;;;;;7487158;39;21910;-69
2021/12/08 23:23:18;;;;;;;76.43;19.40;;;;;;;;;;7488197;39;20399;-70
2021/12/08 23:28:23;;;;;;;77.90;20.10;;;;;;;;;;7488153;39;20994;-70
2021/12/08 23:33:32;;;;;;;70.52;18.35;;;;;;;;;;7487862;39;20217;-71
2021/12/08 23:44:02;;;;;;;55.65;16.15;;;;;;;;;;7488029;39;20526;-69
2021/12/08 23:49:08;;;;;;;44.23;12.53;;;;;;;;;;7488470;39;21447;-69
2021/12/08 23:54:13;;;;;;;52.83;12.85;;;;;;;;;;7487597;39;20229;-68
2021/12/08 23:59:19;;;;;;;42.23;12.00;;;;;;;;;;7487685;39;21447;-69
